sensor_id;sensor_type;location;lat;lon;timestamp;P1;durP1;ratioP1;P2;durP2;ratioP2
64894;SDS011;51588;53.702;10.208;2023-03-23T00:02:19;2.23;;;2.03;;
64894;SDS011;51588;53.702;10.208;2023-03-23T00:04:48;2.20;;;2.00;;
64894;SDS011;51588;53.702;10.208;2023-03-23T00:07:15;2.13;;;1.83;;
64894;SDS011;51588;53.702;10.208;2023-03-23T00:09:46;2.50;;;2.07;;
64894;SDS011;51588;53.702;10.208;2023-03-23T00:12:16;2.20;;;2.00;;
64894;SDS011;51588;53.702;10.208;2023-03-23T00:14:43;2.33;;;1.90;;
64894;SDS011;51588;53.702;10.208;2023-03-23T00:17:12;2.13;;;1.93;;
64894;SDS011;51588;53.702;10.208;2023-03-23T00:19:39;2.27;;;2.07;;
64894;SDS011;51588;53.702;10.208;2023-03-23T00:22:11;2.23;;;1.90;;
64894;SDS011;51588;53.702;10.208;2023-03-23T00:24:42;2.23;;;1.90;;
64894;SDS011;51588;53.702;10.208;2023-03-23T00:27:09;2.30;;;2.03;;
64894;SDS011;51588;53.702;10.208;2023-03-23T00:29:38;4.30;;;2.40;;
64894;SDS011;51588;53.702;10.208;2023-03-23T00:32:06;3.20;;;2.20;;
64894;SDS011;51588;53.702;10.208;2023-03-23T00:34:37;2.90;;;1.80;;
64894;SDS011;51588;53.702;10.208;2023-03-23T00:37:05;2.40;;;2.20;;
64894;SDS011;51588;53.702;10.208;2023-03-23T00:39:32;2.10;;;1.90;;
64894;SDS011;51588;53.702;10.208;2023-03-23T00:42:02;4.00;;;2.23;;
64894;SDS011;51588;53.702;10.208;2023-03-23T00:44:29;2.33;;;2.07;;
64894;SDS011;51588;53.702;10.208;2023-03-23T00:47:01;2.27;;;2.00;;
64894;SDS011;51588;53.702;10.208;2023-03-23T00:49:35;2.27;;;2.07;;
64894;SDS011;51588;53.702;10.208;2023-03-23T00:52:03;2.03;;;1.83;;
64894;SDS011;51588;53.702;10.208;2023-03-23T00:54:31;2.33;;;2.13;;
64894;SDS011;51588;53.702;10.208;2023-03-23T00:56:59;3.10;;;2.30;;
64894;SDS011;51588;53.702;10.208;2023-03-23T00:59:26;2.57;;;1.93;;
64894;SDS011;51588;53.702;10.208;2023-03-23T01:01:53;2.90;;;2.03;;
64894;SDS011;51588;53.702;10.208;2023-03-23T01:04:21;2.47;;;2.00;;
64894;SDS011;51588;53.702;10.208;2023-03-23T01:06:48;2.50;;;2.30;;
64894;SDS011;51588;53.702;10.208;2023-03-23T01:09:17;1.97;;;1.80;;
64894;SDS011;51588;53.702;10.208;2023-03-23T01:11:46;2.27;;;2.00;;
64894;SDS011;51588;53.702;10.208;2023-03-23T01:14:15;2.30;;;2.10;;
64894;SDS011;51588;53.702;10.208;2023-03-23T01:16:44;2.20;;;2.00;;
64894;SDS011;51588;53.702;10.208;2023-03-23T01:19:10;3.50;;;1.97;;
64894;SDS011;51588;53.702;10.208;2023-03-23T01:21:38;2.13;;;1.93;;
64894;SDS011;51588;53.702;10.208;2023-03-23T01:24:05;3.20;;;2.23;;
64894;SDS011;51588;53.702;10.208;2023-03-23T01:26:33;2.47;;;2.27;;
64894;SDS011;51588;53.702;10.208;2023-03-23T01:28:59;2.50;;;2.30;;
64894;SDS011;51588;53.702;10.208;2023-03-23T01:31:26;2.83;;;2.13;;
64894;SDS011;51588;53.702;10.208;2023-03-23T01:33:53;2.23;;;2.03;;
64894;SDS011;51588;53.702;10.208;2023-03-23T01:36:22;2.30;;;2.10;;
64894;SDS011;51588;53.702;10.208;2023-03-23T01:38:51;2.63;;;2.20;;
64894;SDS011;51588;53.702;10.208;2023-03-23T01:41:19;1.97;;;1.83;;
64894;SDS011;51588;53.702;10.208;2023-03-23T01:43:54;2.20;;;2.10;;
64894;SDS011;51588;53.702;10.208;2023-03-23T01:46:32;2.43;;;2.23;;
64894;SDS011;51588;53.702;10.208;2023-03-23T01:49:04;2.20;;;2.00;;
64894;SDS011;51588;53.702;10.208;2023-03-23T01:51:35;2.13;;;2.03;;
64894;SDS011;51588;53.702;10.208;2023-03-23T01:54:07;2.90;;;1.93;;
64894;SDS011;51588;53.702;10.208;2023-03-23T01:56:39;2.40;;;2.20;;
64894;SDS011;51588;53.702;10.208;2023-03-23T01:59:11;2.73;;;2.40;;
64894;SDS011;51588;53.702;10.208;2023-03-23T02:01:39;2.70;;;2.50;;
64894;SDS011;51588;53.702;10.208;2023-03-23T02:04:10;2.47;;;2.27;;
64894;SDS011;51588;53.702;10.208;2023-03-23T02:06:38;2.50;;;2.30;;
64894;SDS011;51588;53.702;10.208;2023-03-23T02:09:04;2.37;;;2.17;;
64894;SDS011;51588;53.702;10.208;2023-03-23T02:11:33;2.07;;;1.97;;
64894;SDS011;51588;53.702;10.208;2023-03-23T02:14:00;2.50;;;2.30;;
64894;SDS011;51588;53.702;10.208;2023-03-23T02:16:33;2.20;;;2.10;;
64894;SDS011;51588;53.702;10.208;2023-03-23T02:19:12;2.40;;;2.20;;
64894;SDS011;51588;53.702;10.208;2023-03-23T02:22:14;3.37;;;2.37;;
64894;SDS011;51588;53.702;10.208;2023-03-23T02:24:59;2.40;;;2.20;;
64894;SDS011;51588;53.702;10.208;2023-03-23T02:30:46;2.53;;;2.33;;
64894;SDS011;51588;53.702;10.208;2023-03-23T02:33:29;1.97;;;1.87;;
64894;SDS011;51588;53.702;10.208;2023-03-23T02:36:10;2.80;;;2.17;;
64894;SDS011;51588;53.702;10.208;2023-03-23T02:38:42;2.50;;;2.30;;
64894;SDS011;51588;53.702;10.208;2023-03-23T02:41:15;2.50;;;2.30;;
64894;SDS011;51588;53.702;10.208;2023-03-23T02:43:46;2.30;;;2.10;;
64894;SDS011;51588;53.702;10.208;2023-03-23T02:46:15;2.40;;;2.20;;
64894;SDS011;51588;53.702;10.208;2023-03-23T02:48:46;3.20;;;2.40;;
64894;SDS011;51588;53.702;10.208;2023-03-23T02:51:16;2.80;;;2.57;;
64894;SDS011;51588;53.702;10.208;2023-03-23T02:53:45;3.60;;;2.63;;
64894;SDS011;51588;53.702;10.208;2023-03-23T02:56:14;2.63;;;2.43;;
64894;SDS011;51588;53.702;10.208;2023-03-23T02:58:41;3.87;;;2.30;;
64894;SDS011;51588;53.702;10.208;2023-03-23T03:04:18;2.23;;;1.97;;
64894;SDS011;51588;53.702;10.208;2023-03-23T03:06:50;2.40;;;2.20;;
64894;SDS011;51588;53.702;10.208;2023-03-23T03:09:25;2.40;;;2.20;;
64894;SDS011;51588;53.702;10.208;2023-03-23T03:12:01;2.43;;;1.87;;
64894;SDS011;51588;53.702;10.208;2023-03-23T03:14:35;2.40;;;2.20;;
64894;SDS011;51588;53.702;10.208;2023-03-23T03:17:06;2.20;;;2.00;;
64894;SDS011;51588;53.702;10.208;2023-03-23T03:19:41;3.70;;;2.17;;
64894;SDS011;51588;53.702;10.208;2023-03-23T03:22:12;2.33;;;2.10;;
64894;SDS011;51588;53.702;10.208;2023-03-23T03:24:40;2.43;;;2.23;;
64894;SDS011;51588;53.702;10.208;2023-03-23T03:27:12;2.50;;;2.03;;
64894;SDS011;51588;53.702;10.208;2023-03-23T03:29:41;1.90;;;1.80;;
64894;SDS011;51588;53.702;10.208;2023-03-23T03:32:12;2.03;;;1.83;;
64894;SDS011;51588;53.702;10.208;2023-03-23T03:34:45;2.10;;;1.90;;
64894;SDS011;51588;53.702;10.208;2023-03-23T03:37:12;2.30;;;2.10;;
64894;SDS011;51588;53.702;10.208;2023-03-23T03:39:40;2.17;;;1.90;;
64894;SDS011;51588;53.702;10.208;2023-03-23T03:42:06;2.43;;;2.13;;
64894;SDS011;51588;53.702;10.208;2023-03-23T03:44:33;2.10;;;2.00;;
64894;SDS011;51588;53.702;10.208;2023-03-23T03:47:00;2.03;;;1.70;;
64894;SDS011;51588;53.702;10.208;2023-03-23T03:49:27;2.03;;;1.77;;
64894;SDS011;51588;53.702;10.208;2023-03-23T03:51:55;2.30;;;2.07;;
64894;SDS011;51588;53.702;10.208;2023-03-23T03:54:21;2.20;;;1.90;;
64894;SDS011;51588;53.702;10.208;2023-03-23T03:56:48;1.97;;;1.77;;
64894;SDS011;51588;53.702;10.208;2023-03-23T03:59:16;2.57;;;2.17;;
64894;SDS011;51588;53.702;10.208;2023-03-23T04:01:46;2.47;;;2.13;;
64894;SDS011;51588;53.702;10.208;2023-03-23T04:04:18;2.13;;;1.93;;
64894;SDS011;51588;53.702;10.208;2023-03-23T04:06:45;2.30;;;1.83;;
64894;SDS011;51588;53.702;10.208;2023-03-23T04:09:18;1.67;;;1.57;;
64894;SDS011;51588;53.702;10.208;2023-03-23T04:11:47;2.13;;;1.90;;
64894;SDS011;51588;53.702;10.208;2023-03-23T04:14:14;2.07;;;1.87;;
64894;SDS011;51588;53.702;10.208;2023-03-23T04:16:40;2.97;;;1.73;;
64894;SDS011;51588;53.702;10.208;2023-03-23T04:19:14;2.20;;;2.00;;
64894;SDS011;51588;53.702;10.208;2023-03-23T04:21:41;3.30;;;2.50;;
64894;SDS011;51588;53.702;10.208;2023-03-23T04:24:08;2.40;;;2.20;;
64894;SDS011;51588;53.702;10.208;2023-03-23T04:26:49;2.10;;;1.80;;
64894;SDS011;51588;53.702;10.208;2023-03-23T04:29:17;1.87;;;1.77;;
64894;SDS011;51588;53.702;10.208;2023-03-23T04:31:44;3.20;;;2.30;;
64894;SDS011;51588;53.702;10.208;2023-03-23T04:34:11;2.13;;;1.87;;
64894;SDS011;51588;53.702;10.208;2023-03-23T04:36:38;2.10;;;1.90;;
64894;SDS011;51588;53.702;10.208;2023-03-23T04:39:05;3.20;;;2.13;;
64894;SDS011;51588;53.702;10.208;2023-03-23T04:41:35;1.90;;;1.80;;
64894;SDS011;51588;53.702;10.208;2023-03-23T04:44:03;2.20;;;2.00;;
64894;SDS011;51588;53.702;10.208;2023-03-23T04:46:30;2.17;;;1.70;;
64894;SDS011;51588;53.702;10.208;2023-03-23T04:48:57;2.40;;;1.70;;
64894;SDS011;51588;53.702;10.208;2023-03-23T04:51:30;2.13;;;2.00;;
64894;SDS011;51588;53.702;10.208;2023-03-23T04:53:57;2.20;;;2.00;;
64894;SDS011;51588;53.702;10.208;2023-03-23T04:56:23;2.63;;;1.70;;
64894;SDS011;51588;53.702;10.208;2023-03-23T04:58:50;2.37;;;2.10;;
64894;SDS011;51588;53.702;10.208;2023-03-23T05:01:18;2.83;;;2.50;;
64894;SDS011;51588;53.702;10.208;2023-03-23T05:03:44;1.90;;;1.80;;
64894;SDS011;51588;53.702;10.208;2023-03-23T05:06:11;2.13;;;1.93;;
64894;SDS011;51588;53.702;10.208;2023-03-23T05:08:38;2.20;;;2.00;;
64894;SDS011;51588;53.702;10.208;2023-03-23T05:11:05;2.30;;;2.10;;
64894;SDS011;51588;53.702;10.208;2023-03-23T05:13:33;2.03;;;1.90;;
64894;SDS011;51588;53.702;10.208;2023-03-23T05:16:02;2.43;;;1.80;;
64894;SDS011;51588;53.702;10.208;2023-03-23T05:18:31;2.00;;;1.90;;
64894;SDS011;51588;53.702;10.208;2023-03-23T05:20:59;2.50;;;1.97;;
64894;SDS011;51588;53.702;10.208;2023-03-23T05:23:29;2.07;;;1.97;;
64894;SDS011;51588;53.702;10.208;2023-03-23T05:26:01;3.70;;;2.23;;
64894;SDS011;51588;53.702;10.208;2023-03-23T05:28:28;2.37;;;2.17;;
64894;SDS011;51588;53.702;10.208;2023-03-23T05:30:55;3.10;;;2.13;;
64894;SDS011;51588;53.702;10.208;2023-03-23T05:33:31;2.07;;;1.80;;
64894;SDS011;51588;53.702;10.208;2023-03-23T05:35:57;2.00;;;1.90;;
64894;SDS011;51588;53.702;10.208;2023-03-23T05:38:25;2.50;;;2.30;;
64894;SDS011;51588;53.702;10.208;2023-03-23T05:40:57;2.30;;;2.10;;
64894;SDS011;51588;53.702;10.208;2023-03-23T05:43:32;2.00;;;1.87;;
64894;SDS011;51588;53.702;10.208;2023-03-23T05:45:58;3.20;;;2.10;;
64894;SDS011;51588;53.702;10.208;2023-03-23T05:48:25;2.50;;;1.93;;
64894;SDS011;51588;53.702;10.208;2023-03-23T05:50:53;2.50;;;2.30;;
64894;SDS011;51588;53.702;10.208;2023-03-23T05:53:20;1.70;;;1.60;;
64894;SDS011;51588;53.702;10.208;2023-03-23T05:55:46;2.30;;;2.10;;
64894;SDS011;51588;53.702;10.208;2023-03-23T05:58:13;2.20;;;2.00;;
64894;SDS011;51588;53.702;10.208;2023-03-23T06:00:39;2.20;;;2.00;;
64894;SDS011;51588;53.702;10.208;2023-03-23T06:03:07;2.30;;;2.00;;
64894;SDS011;51588;53.702;10.208;2023-03-23T06:05:33;2.60;;;2.20;;
64894;SDS011;51588;53.702;10.208;2023-03-23T06:08:04;2.10;;;1.90;;
64894;SDS011;51588;53.702;10.208;2023-03-23T06:10:32;2.00;;;1.90;;
64894;SDS011;51588;53.702;10.208;2023-03-23T06:13:01;3.03;;;2.03;;
64894;SDS011;51588;53.702;10.208;2023-03-23T06:15:28;2.23;;;2.00;;
64894;SDS011;51588;53.702;10.208;2023-03-23T06:17:59;2.30;;;2.10;;
64894;SDS011;51588;53.702;10.208;2023-03-23T06:20:26;2.17;;;1.97;;
64894;SDS011;51588;53.702;10.208;2023-03-23T06:22:52;2.10;;;1.90;;
64894;SDS011;51588;53.702;10.208;2023-03-23T06:25:20;1.97;;;1.80;;
64894;SDS011;51588;53.702;10.208;2023-03-23T06:27:47;2.13;;;1.93;;
64894;SDS011;51588;53.702;10.208;2023-03-23T06:30:14;3.57;;;1.77;;
64894;SDS011;51588;53.702;10.208;2023-03-23T06:32:44;2.03;;;1.83;;
64894;SDS011;51588;53.702;10.208;2023-03-23T06:35:12;2.90;;;1.80;;
64894;SDS011;51588;53.702;10.208;2023-03-23T06:37:43;5.50;;;1.97;;
64894;SDS011;51588;53.702;10.208;2023-03-23T06:40:09;7.53;;;2.17;;
64894;SDS011;51588;53.702;10.208;2023-03-23T06:42:38;7.10;;;2.20;;
64894;SDS011;51588;53.702;10.208;2023-03-23T06:45:05;8.80;;;2.60;;
64894;SDS011;51588;53.702;10.208;2023-03-23T06:47:32;4.80;;;2.30;;
64894;SDS011;51588;53.702;10.208;2023-03-23T06:49:59;5.90;;;2.87;;
64894;SDS011;51588;53.702;10.208;2023-03-23T06:52:25;11.80;;;2.97;;
64894;SDS011;51588;53.702;10.208;2023-03-23T06:54:54;10.77;;;3.50;;
64894;SDS011;51588;53.702;10.208;2023-03-23T06:57:21;8.60;;;3.00;;
64894;SDS011;51588;53.702;10.208;2023-03-23T06:59:49;11.63;;;3.17;;
64894;SDS011;51588;53.702;10.208;2023-03-23T07:02:15;11.67;;;3.00;;
64894;SDS011;51588;53.702;10.208;2023-03-23T07:04:45;7.33;;;3.23;;
64894;SDS011;51588;53.702;10.208;2023-03-23T07:07:12;16.60;;;4.20;;
64894;SDS011;51588;53.702;10.208;2023-03-23T07:09:45;5.87;;;3.20;;
64894;SDS011;51588;53.702;10.208;2023-03-23T07:12:14;16.63;;;3.30;;
64894;SDS011;51588;53.702;10.208;2023-03-23T07:14:44;11.33;;;2.80;;
64894;SDS011;51588;53.702;10.208;2023-03-23T07:17:12;8.50;;;2.97;;
64894;SDS011;51588;53.702;10.208;2023-03-23T07:19:39;8.90;;;3.27;;
64894;SDS011;51588;53.702;10.208;2023-03-23T07:22:05;8.93;;;2.70;;
64894;SDS011;51588;53.702;10.208;2023-03-23T07:24:33;5.17;;;2.83;;
64894;SDS011;51588;53.702;10.208;2023-03-23T07:27:00;8.27;;;3.00;;
64894;SDS011;51588;53.702;10.208;2023-03-23T07:29:28;5.40;;;3.00;;
64894;SDS011;51588;53.702;10.208;2023-03-23T07:32:01;8.23;;;3.10;;
64894;SDS011;51588;53.702;10.208;2023-03-23T07:34:29;4.23;;;2.43;;
64894;SDS011;51588;53.702;10.208;2023-03-23T07:36:55;7.10;;;2.50;;
64894;SDS011;51588;53.702;10.208;2023-03-23T07:39:22;8.30;;;2.40;;
64894;SDS011;51588;53.702;10.208;2023-03-23T07:41:49;6.70;;;2.90;;
64894;SDS011;51588;53.702;10.208;2023-03-23T07:44:15;6.40;;;2.53;;
64894;SDS011;51588;53.702;10.208;2023-03-23T07:46:45;4.57;;;2.70;;
64894;SDS011;51588;53.702;10.208;2023-03-23T07:49:12;8.13;;;2.47;;
64894;SDS011;51588;53.702;10.208;2023-03-23T07:51:40;5.67;;;1.90;;
64894;SDS011;51588;53.702;10.208;2023-03-23T07:54:06;3.47;;;2.20;;
64894;SDS011;51588;53.702;10.208;2023-03-23T07:56:33;7.40;;;2.20;;
64894;SDS011;51588;53.702;10.208;2023-03-23T07:59:00;6.50;;;2.60;;
64894;SDS011;51588;53.702;10.208;2023-03-23T08:01:27;3.60;;;2.00;;
64894;SDS011;51588;53.702;10.208;2023-03-23T08:03:56;7.60;;;2.40;;
64894;SDS011;51588;53.702;10.208;2023-03-23T08:06:23;7.00;;;2.17;;
64894;SDS011;51588;53.702;10.208;2023-03-23T08:08:51;7.87;;;2.30;;
64894;SDS011;51588;53.702;10.208;2023-03-23T08:11:18;5.70;;;1.90;;
64894;SDS011;51588;53.702;10.208;2023-03-23T08:13:45;4.80;;;1.93;;
64894;SDS011;51588;53.702;10.208;2023-03-23T08:16:12;4.27;;;2.23;;
64894;SDS011;51588;53.702;10.208;2023-03-23T08:18:39;2.70;;;1.80;;
64894;SDS011;51588;53.702;10.208;2023-03-23T08:21:06;5.30;;;2.40;;
64894;SDS011;51588;53.702;10.208;2023-03-23T08:23:34;2.53;;;2.00;;
64894;SDS011;51588;53.702;10.208;2023-03-23T08:26:03;4.03;;;2.23;;
64894;SDS011;51588;53.702;10.208;2023-03-23T08:28:31;4.00;;;1.77;;
64894;SDS011;51588;53.702;10.208;2023-03-23T08:31:00;2.40;;;1.80;;
64894;SDS011;51588;53.702;10.208;2023-03-23T08:33:32;4.73;;;1.47;;
64894;SDS011;51588;53.702;10.208;2023-03-23T08:35:59;3.70;;;2.13;;
64894;SDS011;51588;53.702;10.208;2023-03-23T08:38:32;4.93;;;1.80;;
64894;SDS011;51588;53.702;10.208;2023-03-23T08:40:58;3.70;;;1.70;;
64894;SDS011;51588;53.702;10.208;2023-03-23T08:43:30;2.93;;;1.67;;
64894;SDS011;51588;53.702;10.208;2023-03-23T08:45:57;1.93;;;1.60;;
64894;SDS011;51588;53.702;10.208;2023-03-23T08:48:24;2.43;;;1.50;;
64894;SDS011;51588;53.702;10.208;2023-03-23T08:50:51;3.47;;;1.63;;
64894;SDS011;51588;53.702;10.208;2023-03-23T08:53:18;2.57;;;1.57;;
64894;SDS011;51588;53.702;10.208;2023-03-23T08:55:45;2.60;;;1.60;;
64894;SDS011;51588;53.702;10.208;2023-03-23T08:58:15;2.67;;;1.83;;
64894;SDS011;51588;53.702;10.208;2023-03-23T09:00:47;3.10;;;1.53;;
64894;SDS011;51588;53.702;10.208;2023-03-23T09:03:13;2.33;;;1.47;;
64894;SDS011;51588;53.702;10.208;2023-03-23T09:05:43;4.13;;;1.63;;
64894;SDS011;51588;53.702;10.208;2023-03-23T09:08:11;1.60;;;1.40;;
64894;SDS011;51588;53.702;10.208;2023-03-23T09:10:38;2.83;;;1.67;;
64894;SDS011;51588;53.702;10.208;2023-03-23T09:13:05;1.47;;;1.30;;
64894;SDS011;51588;53.702;10.208;2023-03-23T09:15:32;2.60;;;1.30;;
64894;SDS011;51588;53.702;10.208;2023-03-23T09:18:03;3.00;;;1.57;;
64894;SDS011;51588;53.702;10.208;2023-03-23T09:20:32;2.87;;;1.33;;
64894;SDS011;51588;53.702;10.208;2023-03-23T09:22:59;5.70;;;1.50;;
64894;SDS011;51588;53.702;10.208;2023-03-23T09:25:26;1.87;;;1.43;;
64894;SDS011;51588;53.702;10.208;2023-03-23T09:27:54;5.87;;;1.60;;
64894;SDS011;51588;53.702;10.208;2023-03-23T09:30:23;2.40;;;1.37;;
64894;SDS011;51588;53.702;10.208;2023-03-23T09:32:51;1.83;;;1.40;;
64894;SDS011;51588;53.702;10.208;2023-03-23T09:35:19;1.97;;;1.33;;
64894;SDS011;51588;53.702;10.208;2023-03-23T09:37:48;2.63;;;1.43;;
64894;SDS011;51588;53.702;10.208;2023-03-23T09:40:16;2.37;;;1.60;;
64894;SDS011;51588;53.702;10.208;2023-03-23T09:42:48;3.10;;;1.53;;
64894;SDS011;51588;53.702;10.208;2023-03-23T09:45:34;2.10;;;1.40;;
64894;SDS011;51588;53.702;10.208;2023-03-23T09:48:23;1.50;;;1.30;;
64894;SDS011;51588;53.702;10.208;2023-03-23T09:51:01;4.83;;;1.50;;
64894;SDS011;51588;53.702;10.208;2023-03-23T09:53:44;3.10;;;1.50;;
64894;SDS011;51588;53.702;10.208;2023-03-23T09:56:17;3.00;;;1.40;;
64894;SDS011;51588;53.702;10.208;2023-03-23T09:58:46;2.87;;;1.60;;
64894;SDS011;51588;53.702;10.208;2023-03-23T10:01:21;4.20;;;1.30;;
64894;SDS011;51588;53.702;10.208;2023-03-23T10:03:55;4.50;;;1.60;;
64894;SDS011;51588;53.702;10.208;2023-03-23T10:06:29;3.00;;;1.60;;
64894;SDS011;51588;53.702;10.208;2023-03-23T10:08:56;1.97;;;1.40;;
64894;SDS011;51588;53.702;10.208;2023-03-23T10:11:29;4.90;;;1.30;;
64894;SDS011;51588;53.702;10.208;2023-03-23T10:14:09;1.67;;;1.40;;
64894;SDS011;51588;53.702;10.208;2023-03-23T10:16:52;1.50;;;1.30;;
64894;SDS011;51588;53.702;10.208;2023-03-23T10:19:25;2.03;;;1.20;;
64894;SDS011;51588;53.702;10.208;2023-03-23T10:22:03;1.50;;;1.33;;
64894;SDS011;51588;53.702;10.208;2023-03-23T10:24:33;2.20;;;1.43;;
64894;SDS011;51588;53.702;10.208;2023-03-23T10:27:05;3.20;;;1.50;;
64894;SDS011;51588;53.702;10.208;2023-03-23T10:29:42;4.73;;;1.63;;
64894;SDS011;51588;53.702;10.208;2023-03-23T10:32:13;1.67;;;1.33;;
64894;SDS011;51588;53.702;10.208;2023-03-23T10:34:44;4.77;;;1.50;;
64894;SDS011;51588;53.702;10.208;2023-03-23T10:37:18;2.67;;;1.47;;
64894;SDS011;51588;53.702;10.208;2023-03-23T10:39:49;3.17;;;1.50;;
64894;SDS011;51588;53.702;10.208;2023-03-23T10:42:24;1.70;;;1.30;;
64894;SDS011;51588;53.702;10.208;2023-03-23T10:44:52;2.13;;;1.30;;
64894;SDS011;51588;53.702;10.208;2023-03-23T10:47:19;2.90;;;1.60;;
64894;SDS011;51588;53.702;10.208;2023-03-23T10:49:48;4.67;;;1.37;;
64894;SDS011;51588;53.702;10.208;2023-03-23T10:52:22;2.73;;;1.40;;
64894;SDS011;51588;53.702;10.208;2023-03-23T10:54:55;2.47;;;1.50;;
64894;SDS011;51588;53.702;10.208;2023-03-23T10:57:24;2.97;;;1.50;;
64894;SDS011;51588;53.702;10.208;2023-03-23T10:59:57;4.70;;;1.93;;
64894;SDS011;51588;53.702;10.208;2023-03-23T11:02:35;10.47;;;2.10;;
64894;SDS011;51588;53.702;10.208;2023-03-23T11:05:06;7.50;;;2.17;;
64894;SDS011;51588;53.702;10.208;2023-03-23T11:07:47;8.20;;;2.60;;
64894;SDS011;51588;53.702;10.208;2023-03-23T11:10:20;9.50;;;2.40;;
64894;SDS011;51588;53.702;10.208;2023-03-23T11:12:50;6.13;;;2.43;;
64894;SDS011;51588;53.702;10.208;2023-03-23T11:18:04;10.40;;;2.47;;
64894;SDS011;51588;53.702;10.208;2023-03-23T11:20:35;8.63;;;2.60;;
64894;SDS011;51588;53.702;10.208;2023-03-23T11:23:09;10.67;;;2.40;;
64894;SDS011;51588;53.702;10.208;2023-03-23T11:25:54;11.87;;;2.67;;
64894;SDS011;51588;53.702;10.208;2023-03-23T11:28:25;8.00;;;2.60;;
64894;SDS011;51588;53.702;10.208;2023-03-23T11:30:56;12.63;;;2.90;;
64894;SDS011;51588;53.702;10.208;2023-03-23T11:33:24;13.17;;;3.43;;
64894;SDS011;51588;53.702;10.208;2023-03-23T11:35:52;10.07;;;2.40;;
64894;SDS011;51588;53.702;10.208;2023-03-23T11:38:22;6.83;;;2.40;;
64894;SDS011;51588;53.702;10.208;2023-03-23T11:40:52;8.70;;;2.57;;
64894;SDS011;51588;53.702;10.208;2023-03-23T11:43:20;7.70;;;2.80;;
64894;SDS011;51588;53.702;10.208;2023-03-23T11:45:51;7.67;;;2.80;;
64894;SDS011;51588;53.702;10.208;2023-03-23T11:48:26;9.93;;;2.93;;
64894;SDS011;51588;53.702;10.208;2023-03-23T11:51:01;9.60;;;2.80;;
64894;SDS011;51588;53.702;10.208;2023-03-23T11:53:37;9.90;;;2.73;;
64894;SDS011;51588;53.702;10.208;2023-03-23T11:56:15;7.63;;;2.73;;
64894;SDS011;51588;53.702;10.208;2023-03-23T11:58:49;7.13;;;2.60;;
64894;SDS011;51588;53.702;10.208;2023-03-23T12:01:19;8.50;;;2.93;;
64894;SDS011;51588;53.702;10.208;2023-03-23T12:03:58;8.07;;;2.37;;
64894;SDS011;51588;53.702;10.208;2023-03-23T12:06:34;12.53;;;3.10;;
64894;SDS011;51588;53.702;10.208;2023-03-23T12:09:10;11.60;;;2.90;;
64894;SDS011;51588;53.702;10.208;2023-03-23T12:11:52;11.77;;;3.10;;
64894;SDS011;51588;53.702;10.208;2023-03-23T12:14:27;14.80;;;2.97;;
64894;SDS011;51588;53.702;10.208;2023-03-23T12:17:02;11.03;;;2.90;;
64894;SDS011;51588;53.702;10.208;2023-03-23T12:19:43;11.73;;;3.23;;
64894;SDS011;51588;53.702;10.208;2023-03-23T12:22:34;9.07;;;2.93;;
64894;SDS011;51588;53.702;10.208;2023-03-23T12:25:30;10.40;;;2.93;;
64894;SDS011;51588;53.702;10.208;2023-03-23T12:28:11;8.77;;;2.97;;
64894;SDS011;51588;53.702;10.208;2023-03-23T12:30:45;15.40;;;3.30;;
64894;SDS011;51588;53.702;10.208;2023-03-23T12:33:19;13.00;;;2.93;;
64894;SDS011;51588;53.702;10.208;2023-03-23T12:35:58;13.33;;;2.70;;
64894;SDS011;51588;53.702;10.208;2023-03-23T12:41:34;8.80;;;3.13;;
64894;SDS011;51588;53.702;10.208;2023-03-23T12:44:08;14.30;;;3.03;;
64894;SDS011;51588;53.702;10.208;2023-03-23T12:46:45;10.33;;;3.10;;
64894;SDS011;51588;53.702;10.208;2023-03-23T12:49:33;12.50;;;2.80;;
64894;SDS011;51588;53.702;10.208;2023-03-23T12:52:04;11.13;;;3.60;;
64894;SDS011;51588;53.702;10.208;2023-03-23T12:54:42;11.83;;;3.27;;
64894;SDS011;51588;53.702;10.208;2023-03-23T12:57:20;9.27;;;2.90;;
64894;SDS011;51588;53.702;10.208;2023-03-23T13:00:02;8.50;;;2.93;;
64894;SDS011;51588;53.702;10.208;2023-03-23T13:02:38;8.10;;;2.87;;
64894;SDS011;51588;53.702;10.208;2023-03-23T13:05:08;7.90;;;3.60;;
64894;SDS011;51588;53.702;10.208;2023-03-23T13:07:48;8.53;;;3.03;;
64894;SDS011;51588;53.702;10.208;2023-03-23T13:10:19;7.93;;;3.30;;
64894;SDS011;51588;53.702;10.208;2023-03-23T13:12:49;10.77;;;3.20;;
64894;SDS011;51588;53.702;10.208;2023-03-23T13:15:22;8.10;;;3.27;;
64894;SDS011;51588;53.702;10.208;2023-03-23T13:18:02;8.70;;;2.90;;
64894;SDS011;51588;53.702;10.208;2023-03-23T13:20:44;5.10;;;2.50;;
64894;SDS011;51588;53.702;10.208;2023-03-23T13:23:20;6.53;;;3.40;;
64894;SDS011;51588;53.702;10.208;2023-03-23T13:25:49;11.20;;;3.50;;
64894;SDS011;51588;53.702;10.208;2023-03-23T13:28:20;7.70;;;3.03;;
64894;SDS011;51588;53.702;10.208;2023-03-23T13:30:58;9.20;;;2.97;;
64894;SDS011;51588;53.702;10.208;2023-03-23T13:33:31;5.57;;;2.80;;
64894;SDS011;51588;53.702;10.208;2023-03-23T13:36:05;13.20;;;3.03;;
64894;SDS011;51588;53.702;10.208;2023-03-23T13:38:35;5.57;;;3.10;;
64894;SDS011;51588;53.702;10.208;2023-03-23T13:41:10;11.70;;;2.80;;
64894;SDS011;51588;53.702;10.208;2023-03-23T13:43:40;9.73;;;3.03;;
64894;SDS011;51588;53.702;10.208;2023-03-23T13:46:22;6.47;;;2.63;;
64894;SDS011;51588;53.702;10.208;2023-03-23T13:49:02;8.10;;;2.80;;
64894;SDS011;51588;53.702;10.208;2023-03-23T13:51:47;8.47;;;2.77;;
64894;SDS011;51588;53.702;10.208;2023-03-23T13:54:24;7.80;;;2.70;;
64894;SDS011;51588;53.702;10.208;2023-03-23T13:56:57;5.97;;;2.40;;
64894;SDS011;51588;53.702;10.208;2023-03-23T13:59:32;23.67;;;3.33;;
64894;SDS011;51588;53.702;10.208;2023-03-23T14:02:27;11.00;;;2.70;;
64894;SDS011;51588;53.702;10.208;2023-03-23T14:04:57;4.73;;;2.03;;
64894;SDS011;51588;53.702;10.208;2023-03-23T14:07:50;8.60;;;2.30;;
64894;SDS011;51588;53.702;10.208;2023-03-23T14:10:21;5.63;;;2.03;;
64894;SDS011;51588;53.702;10.208;2023-03-23T14:12:49;6.27;;;1.90;;
64894;SDS011;51588;53.702;10.208;2023-03-23T14:15:20;4.77;;;1.57;;
64894;SDS011;51588;53.702;10.208;2023-03-23T14:17:46;6.17;;;1.93;;
64894;SDS011;51588;53.702;10.208;2023-03-23T14:20:18;6.83;;;1.80;;
64894;SDS011;51588;53.702;10.208;2023-03-23T14:22:52;2.90;;;1.27;;
64894;SDS011;51588;53.702;10.208;2023-03-23T14:25:20;2.13;;;1.30;;
64894;SDS011;51588;53.702;10.208;2023-03-23T14:27:47;4.40;;;1.50;;
64894;SDS011;51588;53.702;10.208;2023-03-23T14:30:20;4.60;;;1.50;;
64894;SDS011;51588;53.702;10.208;2023-03-23T14:32:50;3.87;;;1.50;;
64894;SDS011;51588;53.702;10.208;2023-03-23T14:35:19;3.90;;;1.33;;
64894;SDS011;51588;53.702;10.208;2023-03-23T14:37:49;2.30;;;1.23;;
64894;SDS011;51588;53.702;10.208;2023-03-23T14:40:17;3.10;;;1.40;;
64894;SDS011;51588;53.702;10.208;2023-03-23T14:42:44;4.77;;;1.50;;
64894;SDS011;51588;53.702;10.208;2023-03-23T14:45:12;5.90;;;1.40;;
64894;SDS011;51588;53.702;10.208;2023-03-23T14:47:43;4.07;;;1.70;;
64894;SDS011;51588;53.702;10.208;2023-03-23T14:50:22;4.03;;;1.40;;
64894;SDS011;51588;53.702;10.208;2023-03-23T14:52:51;5.97;;;1.67;;
64894;SDS011;51588;53.702;10.208;2023-03-23T14:55:19;5.93;;;1.60;;
64894;SDS011;51588;53.702;10.208;2023-03-23T14:57:47;3.33;;;1.43;;
64894;SDS011;51588;53.702;10.208;2023-03-23T15:00:15;4.57;;;1.93;;
64894;SDS011;51588;53.702;10.208;2023-03-23T15:02:49;3.80;;;1.77;;
64894;SDS011;51588;53.702;10.208;2023-03-23T15:05:20;3.20;;;1.80;;
64894;SDS011;51588;53.702;10.208;2023-03-23T15:07:53;3.30;;;1.83;;